sensor_id;sensor_type;location;lat;lon;timestamp;P1;durP1;ratioP1;P2;durP2;ratioP2
63902;SDS011;50072;50.678;13.938;2023-03-23T00:01:37;8.75;;;3.47;;
63902;SDS011;50072;50.678;13.938;2023-03-23T00:04:03;12.73;;;4.13;;
63902;SDS011;50072;50.678;13.938;2023-03-23T00:06:28;9.63;;;4.25;;
63902;SDS011;50072;50.678;13.938;2023-03-23T00:08:58;9.85;;;4.00;;
63902;SDS011;50072;50.678;13.938;2023-03-23T00:11:30;10.27;;;4.30;;
63902;SDS011;50072;50.678;13.938;2023-03-23T00:14:04;13.38;;;4.55;;
63902;SDS011;50072;50.678;13.938;2023-03-23T00:19:12;10.77;;;4.63;;
63902;SDS011;50072;50.678;13.938;2023-03-23T00:21:40;13.63;;;5.15;;
63902;SDS011;50072;50.678;13.938;2023-03-23T00:24:11;17.17;;;5.10;;
63902;SDS011;50072;50.678;13.938;2023-03-23T00:26:44;10.05;;;5.00;;
63902;SDS011;50072;50.678;13.938;2023-03-23T00:29:16;10.75;;;5.65;;
63902;SDS011;50072;50.678;13.938;2023-03-23T00:31:49;14.65;;;6.28;;
63902;SDS011;50072;50.678;13.938;2023-03-23T00:34:21;21.10;;;7.10;;
63902;SDS011;50072;50.678;13.938;2023-03-23T00:36:56;26.88;;;8.27;;
63902;SDS011;50072;50.678;13.938;2023-03-23T00:39:40;25.23;;;8.52;;
63902;SDS011;50072;50.678;13.938;2023-03-23T00:42:09;23.27;;;6.93;;
63902;SDS011;50072;50.678;13.938;2023-03-23T00:44:42;19.75;;;5.70;;
63902;SDS011;50072;50.678;13.938;2023-03-23T00:47:11;15.23;;;4.43;;
63902;SDS011;50072;50.678;13.938;2023-03-23T00:49:39;14.20;;;4.30;;
63902;SDS011;50072;50.678;13.938;2023-03-23T00:52:11;12.75;;;4.78;;
63902;SDS011;50072;50.678;13.938;2023-03-23T00:54:40;13.57;;;3.63;;
63902;SDS011;50072;50.678;13.938;2023-03-23T00:57:13;6.80;;;2.95;;
63902;SDS011;50072;50.678;13.938;2023-03-23T00:59:40;8.85;;;3.17;;
63902;SDS011;50072;50.678;13.938;2023-03-23T01:02:10;8.18;;;3.05;;
63902;SDS011;50072;50.678;13.938;2023-03-23T01:04:40;9.10;;;2.90;;
63902;SDS011;50072;50.678;13.938;2023-03-23T01:07:16;7.97;;;3.45;;
63902;SDS011;50072;50.678;13.938;2023-03-23T01:09:49;11.90;;;4.75;;
63902;SDS011;50072;50.678;13.938;2023-03-23T01:12:25;13.27;;;4.55;;
63902;SDS011;50072;50.678;13.938;2023-03-23T01:15:05;10.55;;;4.25;;
63902;SDS011;50072;50.678;13.938;2023-03-23T01:17:43;12.48;;;4.07;;
63902;SDS011;50072;50.678;13.938;2023-03-23T01:20:13;12.63;;;4.95;;
63902;SDS011;50072;50.678;13.938;2023-03-23T01:22:40;17.20;;;5.65;;
63902;SDS011;50072;50.678;13.938;2023-03-23T01:25:13;17.08;;;5.38;;
63902;SDS011;50072;50.678;13.938;2023-03-23T01:27:41;23.88;;;8.82;;
63902;SDS011;50072;50.678;13.938;2023-03-23T01:30:09;23.42;;;7.80;;
63902;SDS011;50072;50.678;13.938;2023-03-23T01:32:43;12.23;;;4.50;;
63902;SDS011;50072;50.678;13.938;2023-03-23T01:35:12;9.20;;;4.28;;
63902;SDS011;50072;50.678;13.938;2023-03-23T01:37:40;11.50;;;4.35;;
63902;SDS011;50072;50.678;13.938;2023-03-23T01:40:10;10.48;;;4.85;;
63902;SDS011;50072;50.678;13.938;2023-03-23T01:42:37;11.40;;;4.68;;
63902;SDS011;50072;50.678;13.938;2023-03-23T01:45:25;13.68;;;5.28;;
63902;SDS011;50072;50.678;13.938;2023-03-23T01:53:11;15.70;;;6.00;;
63902;SDS011;50072;50.678;13.938;2023-03-23T01:55:41;17.48;;;6.35;;
63902;SDS011;50072;50.678;13.938;2023-03-23T01:58:09;19.95;;;6.38;;
63902;SDS011;50072;50.678;13.938;2023-03-23T02:00:42;12.38;;;4.88;;
63902;SDS011;50072;50.678;13.938;2023-03-23T02:03:15;14.10;;;5.43;;
63902;SDS011;50072;50.678;13.938;2023-03-23T02:05:43;18.60;;;6.22;;
63902;SDS011;50072;50.678;13.938;2023-03-23T02:08:10;15.93;;;6.50;;
63902;SDS011;50072;50.678;13.938;2023-03-23T02:10:43;15.82;;;6.40;;
63902;SDS011;50072;50.678;13.938;2023-03-23T02:13:10;12.95;;;5.13;;
63902;SDS011;50072;50.678;13.938;2023-03-23T02:21:16;14.70;;;6.78;;
63902;SDS011;50072;50.678;13.938;2023-03-23T02:24:14;13.88;;;4.75;;
63902;SDS011;50072;50.678;13.938;2023-03-23T02:30:14;12.82;;;4.53;;
63902;SDS011;50072;50.678;13.938;2023-03-23T02:33:29;15.50;;;5.05;;
63902;SDS011;50072;50.678;13.938;2023-03-23T02:41:45;12.15;;;5.35;;
63902;SDS011;50072;50.678;13.938;2023-03-23T02:44:17;13.27;;;6.07;;
63902;SDS011;50072;50.678;13.938;2023-03-23T02:46:43;15.95;;;7.03;;
63902;SDS011;50072;50.678;13.938;2023-03-23T02:49:12;15.77;;;6.13;;
63902;SDS011;50072;50.678;13.938;2023-03-23T02:51:43;14.00;;;5.72;;
63902;SDS011;50072;50.678;13.938;2023-03-23T02:54:17;16.17;;;6.03;;
63902;SDS011;50072;50.678;13.938;2023-03-23T02:59:35;11.40;;;4.75;;
63902;SDS011;50072;50.678;13.938;2023-03-23T03:02:05;13.20;;;4.95;;
63902;SDS011;50072;50.678;13.938;2023-03-23T03:09:52;11.43;;;4.53;;
63902;SDS011;50072;50.678;13.938;2023-03-23T03:15:42;10.85;;;4.28;;
63902;SDS011;50072;50.678;13.938;2023-03-23T03:18:15;8.02;;;3.53;;
63902;SDS011;50072;50.678;13.938;2023-03-23T03:21:11;9.80;;;3.65;;
63902;SDS011;50072;50.678;13.938;2023-03-23T03:23:41;10.85;;;4.90;;
63902;SDS011;50072;50.678;13.938;2023-03-23T03:26:10;8.38;;;3.60;;
63902;SDS011;50072;50.678;13.938;2023-03-23T03:28:43;9.40;;;3.40;;
63902;SDS011;50072;50.678;13.938;2023-03-23T03:31:13;7.93;;;3.70;;
63902;SDS011;50072;50.678;13.938;2023-03-23T03:33:42;8.57;;;3.47;;
63902;SDS011;50072;50.678;13.938;2023-03-23T03:36:14;8.15;;;3.53;;
63902;SDS011;50072;50.678;13.938;2023-03-23T03:38:46;9.70;;;3.45;;
63902;SDS011;50072;50.678;13.938;2023-03-23T03:41:14;8.23;;;3.53;;
63902;SDS011;50072;50.678;13.938;2023-03-23T03:43:40;9.07;;;3.63;;
63902;SDS011;50072;50.678;13.938;2023-03-23T03:46:06;9.30;;;3.25;;
63902;SDS011;50072;50.678;13.938;2023-03-23T03:48:34;8.52;;;3.88;;
63902;SDS011;50072;50.678;13.938;2023-03-23T03:51:00;11.82;;;3.80;;
63902;SDS011;50072;50.678;13.938;2023-03-23T03:53:26;8.13;;;3.63;;
63902;SDS011;50072;50.678;13.938;2023-03-23T03:55:53;9.98;;;3.65;;
63902;SDS011;50072;50.678;13.938;2023-03-23T04:01:00;7.18;;;3.28;;
63902;SDS011;50072;50.678;13.938;2023-03-23T04:03:26;14.02;;;4.53;;
63902;SDS011;50072;50.678;13.938;2023-03-23T04:05:57;6.90;;;3.47;;
63902;SDS011;50072;50.678;13.938;2023-03-23T04:08:26;11.07;;;3.42;;
63902;SDS011;50072;50.678;13.938;2023-03-23T04:10:59;12.15;;;3.72;;
63902;SDS011;50072;50.678;13.938;2023-03-23T04:16:10;9.07;;;3.95;;
63902;SDS011;50072;50.678;13.938;2023-03-23T04:18:41;9.20;;;3.72;;
63902;SDS011;50072;50.678;13.938;2023-03-23T04:21:10;11.40;;;4.53;;
63902;SDS011;50072;50.678;13.938;2023-03-23T04:23:38;11.15;;;4.05;;
63902;SDS011;50072;50.678;13.938;2023-03-23T04:28:42;11.40;;;4.15;;
63902;SDS011;50072;50.678;13.938;2023-03-23T04:31:10;10.27;;;3.67;;
63902;SDS011;50072;50.678;13.938;2023-03-23T04:33:38;18.27;;;6.68;;
63902;SDS011;50072;50.678;13.938;2023-03-23T04:36:10;16.40;;;6.57;;
63902;SDS011;50072;50.678;13.938;2023-03-23T04:38:37;13.75;;;5.15;;
63902;SDS011;50072;50.678;13.938;2023-03-23T04:41:10;19.85;;;5.65;;
63902;SDS011;50072;50.678;13.938;2023-03-23T04:43:41;14.02;;;5.10;;
63902;SDS011;50072;50.678;13.938;2023-03-23T04:46:09;14.63;;;4.95;;
63902;SDS011;50072;50.678;13.938;2023-03-23T04:48:40;12.63;;;5.57;;
63902;SDS011;50072;50.678;13.938;2023-03-23T04:51:12;16.08;;;4.95;;
63902;SDS011;50072;50.678;13.938;2023-03-23T04:56:07;15.65;;;5.82;;
63902;SDS011;50072;50.678;13.938;2023-03-23T04:58:38;11.38;;;5.43;;
63902;SDS011;50072;50.678;13.938;2023-03-23T05:01:05;10.15;;;4.30;;
63902;SDS011;50072;50.678;13.938;2023-03-23T05:03:31;11.45;;;4.63;;
63902;SDS011;50072;50.678;13.938;2023-03-23T05:05:57;15.18;;;5.45;;
63902;SDS011;50072;50.678;13.938;2023-03-23T05:08:27;16.48;;;6.45;;
63902;SDS011;50072;50.678;13.938;2023-03-23T05:10:54;12.65;;;5.68;;
63902;SDS011;50072;50.678;13.938;2023-03-23T05:13:21;14.38;;;6.00;;
63902;SDS011;50072;50.678;13.938;2023-03-23T05:15:48;11.52;;;5.70;;
63902;SDS011;50072;50.678;13.938;2023-03-23T05:18:16;14.15;;;5.28;;
63902;SDS011;50072;50.678;13.938;2023-03-23T05:20:42;11.77;;;4.82;;
63902;SDS011;50072;50.678;13.938;2023-03-23T05:23:08;11.80;;;4.20;;
63902;SDS011;50072;50.678;13.938;2023-03-23T05:25:35;11.00;;;4.68;;
63902;SDS011;50072;50.678;13.938;2023-03-23T05:28:08;11.43;;;4.63;;
63902;SDS011;50072;50.678;13.938;2023-03-23T05:30:37;10.05;;;5.20;;
63902;SDS011;50072;50.678;13.938;2023-03-23T05:33:04;15.48;;;6.53;;
63902;SDS011;50072;50.678;13.938;2023-03-23T05:35:30;16.38;;;7.28;;
63902;SDS011;50072;50.678;13.938;2023-03-23T05:37:56;15.95;;;6.85;;
63902;SDS011;50072;50.678;13.938;2023-03-23T05:40:25;15.30;;;7.10;;
63902;SDS011;50072;50.678;13.938;2023-03-23T05:42:53;13.43;;;6.18;;
63902;SDS011;50072;50.678;13.938;2023-03-23T05:45:21;18.15;;;6.93;;
63902;SDS011;50072;50.678;13.938;2023-03-23T05:47:49;11.77;;;6.15;;
63902;SDS011;50072;50.678;13.938;2023-03-23T05:50:17;13.05;;;6.32;;
63902;SDS011;50072;50.678;13.938;2023-03-23T05:52:44;17.63;;;5.65;;
63902;SDS011;50072;50.678;13.938;2023-03-23T05:55:11;14.27;;;6.18;;
63902;SDS011;50072;50.678;13.938;2023-03-23T05:57:38;14.25;;;7.22;;
63902;SDS011;50072;50.678;13.938;2023-03-23T06:00:04;16.98;;;6.25;;
63902;SDS011;50072;50.678;13.938;2023-03-23T06:03:00;13.27;;;6.55;;
63902;SDS011;50072;50.678;13.938;2023-03-23T06:05:42;16.55;;;7.20;;
63902;SDS011;50072;50.678;13.938;2023-03-23T06:08:11;15.73;;;7.28;;
63902;SDS011;50072;50.678;13.938;2023-03-23T06:10:38;19.67;;;8.57;;
63902;SDS011;50072;50.678;13.938;2023-03-23T06:13:12;14.80;;;7.43;;
63902;SDS011;50072;50.678;13.938;2023-03-23T06:15:40;20.45;;;7.63;;
63902;SDS011;50072;50.678;13.938;2023-03-23T06:18:10;15.48;;;6.88;;
63902;SDS011;50072;50.678;13.938;2023-03-23T06:20:40;20.90;;;6.70;;
63902;SDS011;50072;50.678;13.938;2023-03-23T06:23:13;13.30;;;6.88;;
63902;SDS011;50072;50.678;13.938;2023-03-23T06:25:44;15.25;;;7.20;;
63902;SDS011;50072;50.678;13.938;2023-03-23T06:28:10;16.05;;;9.20;;
63902;SDS011;50072;50.678;13.938;2023-03-23T06:30:42;19.85;;;7.30;;
63902;SDS011;50072;50.678;13.938;2023-03-23T06:33:10;15.40;;;7.60;;
63902;SDS011;50072;50.678;13.938;2023-03-23T06:35:43;16.88;;;7.60;;
63902;SDS011;50072;50.678;13.938;2023-03-23T06:38:09;11.45;;;7.22;;
63902;SDS011;50072;50.678;13.938;2023-03-23T06:40:40;17.80;;;7.15;;
63902;SDS011;50072;50.678;13.938;2023-03-23T06:43:13;24.38;;;7.47;;
63902;SDS011;50072;50.678;13.938;2023-03-23T06:45:42;17.17;;;7.28;;
63902;SDS011;50072;50.678;13.938;2023-03-23T06:48:08;11.88;;;6.70;;
63902;SDS011;50072;50.678;13.938;2023-03-23T06:50:43;19.20;;;7.13;;
63902;SDS011;50072;50.678;13.938;2023-03-23T06:53:12;14.82;;;6.95;;
63902;SDS011;50072;50.678;13.938;2023-03-23T06:55:41;15.30;;;7.53;;
63902;SDS011;50072;50.678;13.938;2023-03-23T06:58:10;16.15;;;8.73;;
63902;SDS011;50072;50.678;13.938;2023-03-23T07:00:40;18.40;;;8.00;;
63902;SDS011;50072;50.678;13.938;2023-03-23T07:08:11;17.25;;;7.35;;
63902;SDS011;50072;50.678;13.938;2023-03-23T07:10:43;23.67;;;7.32;;
63902;SDS011;50072;50.678;13.938;2023-03-23T07:13:10;14.73;;;6.80;;
63902;SDS011;50072;50.678;13.938;2023-03-23T07:15:42;24.33;;;8.43;;
63902;SDS011;50072;50.678;13.938;2023-03-23T07:18:10;19.17;;;7.88;;
63902;SDS011;50072;50.678;13.938;2023-03-23T07:20:40;19.20;;;7.72;;
63902;SDS011;50072;50.678;13.938;2023-03-23T07:23:13;19.95;;;8.70;;
63902;SDS011;50072;50.678;13.938;2023-03-23T07:25:39;22.23;;;7.78;;
63902;SDS011;50072;50.678;13.938;2023-03-23T07:28:07;21.13;;;7.75;;
63902;SDS011;50072;50.678;13.938;2023-03-23T07:30:40;13.80;;;6.63;;
63902;SDS011;50072;50.678;13.938;2023-03-23T07:33:13;18.77;;;7.00;;
63902;SDS011;50072;50.678;13.938;2023-03-23T07:35:40;16.02;;;6.90;;
63902;SDS011;50072;50.678;13.938;2023-03-23T07:38:09;18.38;;;6.97;;
63902;SDS011;50072;50.678;13.938;2023-03-23T07:40:40;18.85;;;6.47;;
63902;SDS011;50072;50.678;13.938;2023-03-23T07:43:12;18.20;;;6.60;;
63902;SDS011;50072;50.678;13.938;2023-03-23T07:45:44;16.25;;;6.13;;
63902;SDS011;50072;50.678;13.938;2023-03-23T07:48:10;14.63;;;6.30;;
63902;SDS011;50072;50.678;13.938;2023-03-23T07:50:42;16.23;;;5.55;;
63902;SDS011;50072;50.678;13.938;2023-03-23T07:55:42;9.52;;;4.25;;
63902;SDS011;50072;50.678;13.938;2023-03-23T07:58:10;12.77;;;4.78;;
63902;SDS011;50072;50.678;13.938;2023-03-23T08:00:38;16.70;;;4.95;;
63902;SDS011;50072;50.678;13.938;2023-03-23T08:03:05;12.55;;;5.50;;
63902;SDS011;50072;50.678;13.938;2023-03-23T08:05:38;11.05;;;3.88;;
63902;SDS011;50072;50.678;13.938;2023-03-23T08:08:10;11.27;;;4.43;;
63902;SDS011;50072;50.678;13.938;2023-03-23T08:13:15;10.65;;;3.95;;
63902;SDS011;50072;50.678;13.938;2023-03-23T08:15:41;10.02;;;3.80;;
63902;SDS011;50072;50.678;13.938;2023-03-23T08:18:11;8.70;;;3.40;;
63902;SDS011;50072;50.678;13.938;2023-03-23T08:20:38;9.50;;;3.20;;
63902;SDS011;50072;50.678;13.938;2023-03-23T08:23:10;12.25;;;3.72;;
63902;SDS011;50072;50.678;13.938;2023-03-23T08:28:11;10.38;;;3.08;;
63902;SDS011;50072;50.678;13.938;2023-03-23T08:30:41;10.25;;;3.33;;
63902;SDS011;50072;50.678;13.938;2023-03-23T08:33:10;12.68;;;3.90;;
63902;SDS011;50072;50.678;13.938;2023-03-23T08:35:43;8.98;;;3.03;;
63902;SDS011;50072;50.678;13.938;2023-03-23T08:38:10;10.90;;;3.40;;
63902;SDS011;50072;50.678;13.938;2023-03-23T08:40:43;8.82;;;3.40;;
63902;SDS011;50072;50.678;13.938;2023-03-23T08:43:10;8.68;;;3.10;;
63902;SDS011;50072;50.678;13.938;2023-03-23T08:45:40;12.52;;;2.90;;
63902;SDS011;50072;50.678;13.938;2023-03-23T08:48:13;7.30;;;2.53;;
63902;SDS011;50072;50.678;13.938;2023-03-23T08:50:40;6.60;;;2.38;;
63902;SDS011;50072;50.678;13.938;2023-03-23T08:53:06;13.35;;;2.60;;
63902;SDS011;50072;50.678;13.938;2023-03-23T08:55:32;14.50;;;5.07;;
63902;SDS011;50072;50.678;13.938;2023-03-23T09:00:40;9.23;;;4.82;;
63902;SDS011;50072;50.678;13.938;2023-03-23T09:05:36;9.15;;;2.58;;
63902;SDS011;50072;50.678;13.938;2023-03-23T09:08:10;10.68;;;2.95;;
63902;SDS011;50072;50.678;13.938;2023-03-23T09:10:40;8.75;;;2.53;;
63902;SDS011;50072;50.678;13.938;2023-03-23T09:13:10;8.27;;;2.60;;
63902;SDS011;50072;50.678;13.938;2023-03-23T09:15:42;6.22;;;2.50;;
63902;SDS011;50072;50.678;13.938;2023-03-23T09:18:10;7.85;;;2.47;;
63902;SDS011;50072;50.678;13.938;2023-03-23T09:20:43;5.93;;;2.42;;
63902;SDS011;50072;50.678;13.938;2023-03-23T09:23:10;6.72;;;2.83;;
63902;SDS011;50072;50.678;13.938;2023-03-23T09:25:40;10.75;;;3.50;;
63902;SDS011;50072;50.678;13.938;2023-03-23T09:28:06;12.95;;;3.17;;
63902;SDS011;50072;50.678;13.938;2023-03-23T09:30:40;6.78;;;2.35;;
63902;SDS011;50072;50.678;13.938;2023-03-23T09:33:13;10.80;;;2.60;;
63902;SDS011;50072;50.678;13.938;2023-03-23T09:35:40;10.98;;;2.40;;
63902;SDS011;50072;50.678;13.938;2023-03-23T09:38:13;9.45;;;2.88;;
63902;SDS011;50072;50.678;13.938;2023-03-23T09:40:45;11.50;;;2.60;;
63902;SDS011;50072;50.678;13.938;2023-03-23T09:54:21;6.95;;;2.63;;
63902;SDS011;50072;50.678;13.938;2023-03-23T09:56:52;6.20;;;2.67;;
63902;SDS011;50072;50.678;13.938;2023-03-23T10:01:58;9.30;;;2.90;;
63902;SDS011;50072;50.678;13.938;2023-03-23T10:07:14;5.75;;;2.72;;
63902;SDS011;50072;50.678;13.938;2023-03-23T10:09:43;6.38;;;2.38;;
63902;SDS011;50072;50.678;13.938;2023-03-23T10:17:36;12.25;;;4.07;;
63902;SDS011;50072;50.678;13.938;2023-03-23T10:22:47;9.38;;;2.92;;
63902;SDS011;50072;50.678;13.938;2023-03-23T10:25:22;11.60;;;3.10;;
63902;SDS011;50072;50.678;13.938;2023-03-23T10:30:41;15.30;;;4.82;;
63902;SDS011;50072;50.678;13.938;2023-03-23T10:33:18;13.90;;;4.13;;
63902;SDS011;50072;50.678;13.938;2023-03-23T10:35:55;11.55;;;3.90;;
63902;SDS011;50072;50.678;13.938;2023-03-23T10:38:34;12.95;;;4.85;;
63902;SDS011;50072;50.678;13.938;2023-03-23T10:41:14;6.53;;;3.03;;
63902;SDS011;50072;50.678;13.938;2023-03-23T10:43:42;11.73;;;2.80;;
63902;SDS011;50072;50.678;13.938;2023-03-23T10:47:11;13.18;;;2.95;;
63902;SDS011;50072;50.678;13.938;2023-03-23T10:49:12;10.40;;;3.47;;
63902;SDS011;50072;50.678;13.938;2023-03-23T10:51:43;10.85;;;3.28;;
63902;SDS011;50072;50.678;13.938;2023-03-23T10:54:25;7.72;;;2.38;;
63902;SDS011;50072;50.678;13.938;2023-03-23T10:56:54;6.55;;;1.98;;
63902;SDS011;50072;50.678;13.938;2023-03-23T10:59:26;3.17;;;1.50;;
63902;SDS011;50072;50.678;13.938;2023-03-23T11:01:59;4.45;;;1.40;;
63902;SDS011;50072;50.678;13.938;2023-03-23T11:04:46;5.15;;;1.20;;
63902;SDS011;50072;50.678;13.938;2023-03-23T11:07:27;2.70;;;1.27;;
63902;SDS011;50072;50.678;13.938;2023-03-23T11:15:40;4.63;;;1.92;;
63902;SDS011;50072;50.678;13.938;2023-03-23T11:18:11;6.10;;;1.95;;
63902;SDS011;50072;50.678;13.938;2023-03-23T11:20:52;5.18;;;2.13;;
63902;SDS011;50072;50.678;13.938;2023-03-23T11:26:22;4.75;;;2.17;;
63902;SDS011;50072;50.678;13.938;2023-03-23T11:28:53;8.32;;;2.17;;
63902;SDS011;50072;50.678;13.938;2023-03-23T11:34:15;5.03;;;2.10;;
63902;SDS011;50072;50.678;13.938;2023-03-23T11:36:49;5.40;;;1.65;;
63902;SDS011;50072;50.678;13.938;2023-03-23T11:41:48;6.45;;;2.13;;
63902;SDS011;50072;50.678;13.938;2023-03-23T11:44:17;4.75;;;1.58;;
63902;SDS011;50072;50.678;13.938;2023-03-23T11:52:44;7.60;;;1.50;;
63902;SDS011;50072;50.678;13.938;2023-03-23T11:55:20;4.47;;;1.63;;
63902;SDS011;50072;50.678;13.938;2023-03-23T11:57:51;5.55;;;1.50;;
63902;SDS011;50072;50.678;13.938;2023-03-23T12:00:21;3.95;;;1.50;;
63902;SDS011;50072;50.678;13.938;2023-03-23T12:02:54;4.47;;;1.88;;
63902;SDS011;50072;50.678;13.938;2023-03-23T12:11:07;6.80;;;2.45;;
63902;SDS011;50072;50.678;13.938;2023-03-23T12:19:50;5.25;;;1.50;;
63902;SDS011;50072;50.678;13.938;2023-03-23T12:28:54;4.43;;;1.58;;
63902;SDS011;50072;50.678;13.938;2023-03-23T12:36:46;6.40;;;1.38;;
63902;SDS011;50072;50.678;13.938;2023-03-23T12:48:00;4.60;;;1.42;;
63902;SDS011;50072;50.678;13.938;2023-03-23T12:56:22;4.03;;;1.30;;
63902;SDS011;50072;50.678;13.938;2023-03-23T12:58:44;3.65;;;1.27;;
63902;SDS011;50072;50.678;13.938;2023-03-23T13:01:18;4.35;;;1.52;;
63902;SDS011;50072;50.678;13.938;2023-03-23T13:11:58;2.80;;;1.52;;
63902;SDS011;50072;50.678;13.938;2023-03-23T13:31:25;5.57;;;1.30;;
63902;SDS011;50072;50.678;13.938;2023-03-23T13:34:29;4.28;;;1.42;;
63902;SDS011;50072;50.678;13.938;2023-03-23T13:42:46;5.22;;;1.40;;
63902;SDS011;50072;50.678;13.938;2023-03-23T13:51:00;3.53;;;1.65;;
63902;SDS011;50072;50.678;13.938;2023-03-23T13:53:44;5.50;;;1.70;;
63902;SDS011;50072;50.678;13.938;2023-03-23T13:58:49;5.13;;;1.50;;
63902;SDS011;50072;50.678;13.938;2023-03-23T14:01:32;3.35;;;1.40;;
63902;SDS011;50072;50.678;13.938;2023-03-23T14:04:13;6.60;;;1.50;;
63902;SDS011;50072;50.678;13.938;2023-03-23T14:06:42;4.70;;;1.70;;
63902;SDS011;50072;50.678;13.938;2023-03-23T14:12:01;3.53;;;1.38;;
63902;SDS011;50072;50.678;13.938;2023-03-23T14:17:21;5.13;;;1.50;;
63902;SDS011;50072;50.678;13.938;2023-03-23T14:25:14;5.50;;;1.40;;
63902;SDS011;50072;50.678;13.938;2023-03-23T14:27:43;4.70;;;1.42;;
63902;SDS011;50072;50.678;13.938;2023-03-23T14:30:15;4.50;;;1.73;;
63902;SDS011;50072;50.678;13.938;2023-03-23T14:32:45;3.50;;;1.58;;
63902;SDS011;50072;50.678;13.938;2023-03-23T14:38:14;7.97;;;1.45;;
63902;SDS011;50072;50.678;13.938;2023-03-23T14:40:44;4.03;;;1.50;;
63902;SDS011;50072;50.678;13.938;2023-03-23T14:43:10;7.47;;;1.80;;
63902;SDS011;50072;50.678;13.938;2023-03-23T14:45:43;4.88;;;1.48;;
63902;SDS011;50072;50.678;13.938;2023-03-23T14:48:12;5.53;;;1.27;;
63902;SDS011;50072;50.678;13.938;2023-03-23T14:50:52;3.30;;;1.38;;
63902;SDS011;50072;50.678;13.938;2023-03-23T14:56:13;4.22;;;1.20;;
63902;SDS011;50072;50.678;13.938;2023-03-23T14:58:46;2.25;;;1.58;;
63902;SDS011;50072;50.678;13.938;2023-03-23T15:01:49;3.90;;;1.17;;
63902;SDS011;50072;50.678;13.938;2023-03-23T15:04:17;2.92;;;1.17;;
63902;SDS011;50072;50.678;13.938;2023-03-23T15:06:58;2.70;;;1.30;;
63902;SDS011;50072;50.678;13.938;2023-03-23T15:09:28;6.93;;;1.70;;
63902;SDS011;50072;50.678;13.938;2023-03-23T15:12:04;4.95;;;1.60;;
63902;SDS011;50072;50.678;13.938;2023-03-23T15:14:41;3.72;;;1.10;;
63902;SDS011;50072;50.678;13.938;2023-03-23T15:17:23;3.85;;;1.20;;
63902;SDS011;50072;50.678;13.938;2023-03-23T15:19:51;2.72;;;1.60;;
63902;SDS011;50072;50.678;13.938;2023-03-23T15:22:30;4.45;;;2.10;;
63902;SDS011;50072;50.678;13.938;2023-03-23T15:27:44;8.95;;;3.88;;
63902;SDS011;50072;50.678;13.938;2023-03-23T15:30:36;5.53;;;3.30;;
63902;SDS011;50072;50.678;13.938;2023-03-23T15:33:13;8.55;;;3.35;;
63902;SDS011;50072;50.678;13.938;2023-03-23T15:35:41;23.20;;;10.70;;
63902;SDS011;50072;50.678;13.938;2023-03-23T15:41:21;3.47;;;2.17;;
63902;SDS011;50072;50.678;13.938;2023-03-23T15:46:47;5.32;;;1.85;;
63902;SDS011;50072;50.678;13.938;2023-03-23T15:49:24;3.92;;;1.50;;
63902;SDS011;50072;50.678;13.938;2023-03-23T15:51:56;3.10;;;1.67;;
63902;SDS011;50072;50.678;13.938;2023-03-23T15:57:07;2.92;;;1.60;;
63902;SDS011;50072;50.678;13.938;2023-03-23T15:59:38;3.97;;;1.50;;
63902;SDS011;50072;50.678;13.938;2023-03-23T16:02:10;2.72;;;1.42;;
63902;SDS011;50072;50.678;13.938;2023-03-23T16:05:00;7.07;;;1.83;;
63902;SDS011;50072;50.678;13.938;2023-03-23T16:07:28;2.20;;;1.50;;
63902;SDS011;50072;50.678;13.938;2023-03-23T16:12:43;1.95;;;1.30;;
63902;SDS011;50072;50.678;13.938;2023-03-23T16:15:11;4.38;;;1.42;;
63902;SDS011;50072;50.678;13.938;2023-03-23T16:17:40;2.47;;;1.50;;
63902;SDS011;50072;50.678;13.938;2023-03-23T16:20:22;3.28;;;1.35;;
63902;SDS011;50072;50.678;13.938;2023-03-23T16:22:50;3.67;;;1.23;;
63902;SDS011;50072;50.678;13.938;2023-03-23T16:25:19;2.20;;;1.00;;
63902;SDS011;50072;50.678;13.938;2023-03-23T16:27:48;1.85;;;1.05;;
63902;SDS011;50072;50.678;13.938;2023-03-23T16:35:28;4.70;;;1.30;;
63902;SDS011;50072;50.678;13.938;2023-03-23T16:37:56;3.25;;;1.20;;
63902;SDS011;50072;50.678;13.938;2023-03-23T16:40:24;1.92;;;1.10;;
63902;SDS011;50072;50.678;13.938;2023-03-23T16:42:56;5.82;;;1.40;;
63902;SDS011;50072;50.678;13.938;2023-03-23T16:48:08;2.60;;;1.08;;
63902;SDS011;50072;50.678;13.938;2023-03-23T16:50:35;2.80;;;1.20;;
63902;SDS011;50072;50.678;13.938;2023-03-23T16:53:02;3.13;;;1.33;;
63902;SDS011;50072;50.678;13.938;2023-03-23T16:55:29;3.53;;;1.73;;
63902;SDS011;50072;50.678;13.938;2023-03-23T16:57:57;5.28;;;2.50;;
63902;SDS011;50072;50.678;13.938;2023-03-23T17:00:23;3.30;;;1.13;;
63902;SDS011;50072;50.678;13.938;2023-03-23T17:02:51;4.00;;;1.38;;
63902;SDS011;50072;50.678;13.938;2023-03-23T17:05:22;8.15;;;2.97;;
63902;SDS011;50072;50.678;13.938;2023-03-23T17:07:49;7.68;;;3.80;;
63902;SDS011;50072;50.678;13.938;2023-03-23T17:10:15;6.03;;;2.72;;
63902;SDS011;50072;50.678;13.938;2023-03-23T17:12:42;9.25;;;3.75;;
63902;SDS011;50072;50.678;13.938;2023-03-23T17:15:10;47.95;;;23.92;;
63902;SDS011;50072;50.678;13.938;2023-03-23T17:17:42;61.45;;;31.92;;
63902;SDS011;50072;50.678;13.938;2023-03-23T17:20:11;31.13;;;14.95;;
63902;SDS011;50072;50.678;13.938;2023-03-23T17:22:39;17.70;;;7.38;;
63902;SDS011;50072;50.678;13.938;2023-03-23T17:25:11;19.60;;;7.45;;
63902;SDS011;50072;50.678;13.938;2023-03-23T17:27:37;8.63;;;4.25;;
63902;SDS011;50072;50.678;13.938;2023-03-23T17:30:04;9.35;;;4.18;;
63902;SDS011;50072;50.678;13.938;2023-03-23T17:32:31;8.38;;;3.70;;
63902;SDS011;50072;50.678;13.938;2023-03-23T17:34:58;8.95;;;3.58;;
63902;SDS011;50072;50.678;13.938;2023-03-23T17:37:24;8.45;;;3.70;;
63902;SDS011;50072;50.678;13.938;2023-03-23T17:39:50;11.70;;;6.05;;
63902;SDS011;50072;50.678;13.938;2023-03-23T17:42:16;7.65;;;3.42;;
63902;SDS011;50072;50.678;13.938;2023-03-23T17:44:43;18.40;;;7.25;;
63902;SDS011;50072;50.678;13.938;2023-03-23T17:47:09;17.20;;;8.15;;
63902;SDS011;50072;50.678;13.938;2023-03-23T17:49:37;31.48;;;14.32;;
63902;SDS011;50072;50.678;13.938;2023-03-23T17:52:03;23.95;;;12.82;;
63902;SDS011;50072;50.678;13.938;2023-03-23T17:54:29;19.83;;;9.50;;
63902;SDS011;50072;50.678;13.938;2023-03-23T17:56:56;14.90;;;7.47;;
63902;SDS011;50072;50.678;13.938;2023-03-23T17:59:23;10.05;;;4.68;;
63902;SDS011;50072;50.678;13.938;2023-03-23T18:01:50;9.02;;;3.83;;
63902;SDS011;50072;50.678;13.938;2023-03-23T18:04:18;13.43;;;4.63;;
63902;SDS011;50072;50.678;13.938;2023-03-23T18:06:44;9.75;;;3.35;;
63902;SDS011;50072;50.678;13.938;2023-03-23T18:09:11;9.68;;;2.80;;
63902;SDS011;50072;50.678;13.938;2023-03-23T18:11:42;8.02;;;2.55;;
63902;SDS011;50072;50.678;13.938;2023-03-23T18:14:12;8.93;;;2.83;;
63902;SDS011;50072;50.678;13.938;2023-03-23T18:16:40;20.95;;;8.48;;
63902;SDS011;50072;50.678;13.938;2023-03-23T18:19:06;21.83;;;9.57;;
63902;SDS011;50072;50.678;13.938;2023-03-23T18:21:33;18.48;;;8.30;;
63902;SDS011;50072;50.678;13.938;2023-03-23T18:24:00;23.83;;;10.90;;
63902;SDS011;50072;50.678;13.938;2023-03-23T18:26:26;14.43;;;6.57;;
63902;SDS011;50072;50.678;13.938;2023-03-23T18:28:53;10.93;;;4.60;;
63902;SDS011;50072;50.678;13.938;2023-03-23T18:31:19;11.93;;;5.38;;
63902;SDS011;50072;50.678;13.938;2023-03-23T18:33:47;16.55;;;5.70;;